Time;durP1;ratioP1;P1;durP2;ratioP2;P2;SDS_P1;SDS_P2;PMS_P1;PMS_P2;Temp;Humidity;BMP_temperature;BMP_pressure;BME280_temperature;BME280_humidity;BME280_pressure;Samples;Min_cycle;Max_cycle;Signal;HPM_P1;HPM_P2
2022/06/27 00:02:03;;;;;;;4.68;1.90;;;17.30;72.10;;;;;;5031894;28;20049;-85
2022/06/27 00:04:30;;;;;;;5.85;1.60;;;17.30;72.10;;;;;;5033367;28;20049;-85
2022/06/27 00:06:57;;;;;;;4.95;1.85;;;17.20;72.10;;;;;;5032217;28;20494;-85
2022/06/27 00:09:24;;;;;;;8.00;1.90;;;17.30;72.20;;;;;;5031645;28;20415;-85
2022/06/27 00:11:51;;;;;;;5.28;1.63;;;17.20;72.20;;;;;;5031645;28;20067;-86
2022/06/27 00:14:18;;;;;;;3.45;1.40;;;17.20;72.30;;;;;;5031232;28;20537;-85
2022/06/27 00:16:45;;;;;;;3.88;1.67;;;17.20;72.30;;;;;;5031807;28;20049;-85
2022/06/27 00:19:15;;;;;;;3.88;1.50;;;17.10;72.30;;;;;;5033345;28;20072;-85
2022/06/27 00:21:42;;;;;;;2.58;1.33;;;17.10;72.40;;;;;;5031415;28;20099;-85
2022/06/27 00:24:09;;;;;;;4.30;1.60;;;17.10;72.30;;;;;;5031451;28;20045;-85
2022/06/27 00:26:37;;;;;;;5.05;1.83;;;17.10;72.40;;;;;;5029653;28;20049;-84
2022/06/27 00:29:04;;;;;;;6.85;1.70;;;17.10;72.40;;;;;;5029378;28;20058;-84
2022/06/27 00:31:31;;;;;;;3.92;1.50;;;17.10;72.50;;;;;;5032594;28;20525;-85
2022/06/27 00:33:58;;;;;;;5.72;1.90;;;17.00;72.50;;;;;;5030580;28;20088;-85
2022/06/27 00:36:25;;;;;;;3.20;1.60;;;17.00;72.50;;;;;;5031060;28;20042;-85
2022/06/27 00:38:52;;;;;;;4.93;1.70;;;17.00;72.60;;;;;;5031103;28;20052;-85
2022/06/27 00:41:19;;;;;;;5.22;2.22;;;17.00;72.60;;;;;;5031077;28;20049;-85
2022/06/27 00:43:46;;;;;;;4.32;1.55;;;16.90;72.70;;;;;;5030752;28;20053;-84
2022/06/27 00:46:13;;;;;;;7.18;2.00;;;16.90;72.70;;;;;;5032860;28;20048;-84
2022/06/27 00:48:40;;;;;;;6.85;1.80;;;16.90;72.70;;;;;;5030832;28;20055;-85
2022/06/27 00:51:09;;;;;;;4.53;1.80;;;16.90;72.80;;;;;;5028085;28;20119;-84
2022/06/27 00:53:37;;;;;;;4.00;1.70;;;16.90;72.80;;;;;;5029286;28;20166;-85
2022/06/27 00:56:05;;;;;;;6.82;1.80;;;16.90;72.80;;;;;;5030902;28;20545;-85
2022/06/27 00:58:32;;;;;;;6.57;1.80;;;16.90;72.80;;;;;;5030486;28;20045;-85
2022/06/27 01:00:59;;;;;;;3.80;1.77;;;16.90;72.90;;;;;;5031228;28;20128;-85
2022/06/27 01:03:26;;;;;;;4.72;1.77;;;16.90;72.90;;;;;;5030740;28;20049;-85
2022/06/27 01:05:53;;;;;;;4.38;1.60;;;16.90;72.90;;;;;;5029414;28;20041;-85
2022/06/27 01:08:22;;;;;;;6.20;2.10;;;16.90;73.00;;;;;;5029260;28;20184;-84
2022/06/27 01:10:49;;;;;;;3.22;1.40;;;16.80;73.00;;;;;;5030761;28;20088;-84
2022/06/27 01:13:16;;;;;;;3.63;1.55;;;16.90;73.00;;;;;;5032140;28;20056;-85
2022/06/27 01:15:47;;;;;;;3.90;1.80;;;16.80;73.10;;;;;;5030631;28;20048;-85
2022/06/27 01:18:15;;;;;;;5.70;1.75;;;16.80;73.10;;;;;;5030437;28;20460;-85
2022/06/27 01:20:44;;;;;;;6.55;1.90;;;16.80;73.10;;;;;;5030330;28;20048;-85
2022/06/27 01:23:12;;;;;;;5.50;1.70;;;16.80;73.10;;;;;;5030699;28;20053;-85
2022/06/27 01:25:39;;;;;;;3.30;1.60;;;16.80;73.20;;;;;;5031099;28;20053;-85
2022/06/27 01:28:09;;;;;;;5.65;2.03;;;16.80;73.20;;;;;;5031605;28;20056;-85
2022/06/27 01:30:36;;;;;;;5.57;1.80;;;16.80;73.20;;;;;;5030363;28;20071;-85
2022/06/27 01:33:03;;;;;;;5.28;1.70;;;16.70;73.20;;;;;;5028685;28;20101;-84
2022/06/27 01:35:30;;;;;;;5.90;1.70;;;16.70;73.20;;;;;;5030429;28;20445;-85
2022/06/27 01:37:57;;;;;;;7.18;2.35;;;16.70;73.20;;;;;;5030567;28;20061;-85
2022/06/27 01:40:25;;;;;;;4.22;1.80;;;16.70;73.30;;;;;;5032042;28;20046;-85
2022/06/27 01:42:55;;;;;;;5.60;1.70;;;16.70;73.30;;;;;;5030395;28;20528;-84
2022/06/27 01:45:22;;;;;;;4.53;1.60;;;16.60;73.30;;;;;;5029036;28;20060;-85
2022/06/27 01:47:49;;;;;;;7.13;1.80;;;16.60;73.40;;;;;;5028757;28;20046;-85
2022/06/27 01:50:19;;;;;;;3.42;1.50;;;16.60;73.40;;;;;;5030260;28;20760;-85
2022/06/27 01:52:49;;;;;;;3.58;1.60;;;16.60;73.40;;;;;;5028996;28;20046;-84
2022/06/27 01:55:16;;;;;;;4.15;1.70;;;16.50;73.40;;;;;;5031734;28;20049;-84
2022/06/27 01:57:45;;;;;;;5.38;1.90;;;16.50;73.50;;;;;;5030204;28;20092;-84
2022/06/27 02:00:14;;;;;;;3.30;1.70;;;16.60;73.50;;;;;;5030019;28;20053;-85
2022/06/27 02:02:43;;;;;;;7.07;1.92;;;16.50;73.60;;;;;;5030026;28;20045;-84
2022/06/27 02:05:10;;;;;;;8.07;1.85;;;16.50;73.60;;;;;;5030374;28;20437;-84
2022/06/27 02:07:38;;;;;;;5.72;1.70;;;16.50;73.60;;;;;;5030951;28;20049;-85
2022/06/27 02:10:07;;;;;;;4.95;1.92;;;16.50;73.70;;;;;;5031356;28;20057;-84
2022/06/27 02:12:34;;;;;;;4.63;1.55;;;16.40;73.70;;;;;;5031027;28;20053;-85
2022/06/27 02:15:01;;;;;;;8.63;1.80;;;16.40;73.70;;;;;;5033879;28;20465;-84
2022/06/27 02:17:28;;;;;;;3.92;1.60;;;16.40;73.80;;;;;;5033947;28;20502;-86
2022/06/27 02:19:55;;;;;;;5.15;1.70;;;16.40;73.80;;;;;;5033859;28;20046;-86
2022/06/27 02:22:22;;;;;;;5.43;1.88;;;16.40;73.90;;;;;;5035559;28;20099;-86
2022/06/27 02:24:49;;;;;;;5.03;1.40;;;16.40;73.90;;;;;;5032040;28;20058;-84
2022/06/27 02:27:17;;;;;;;4.85;1.50;;;16.40;73.90;;;;;;5032119;28;20051;-84
2022/06/27 02:29:44;;;;;;;4.90;1.80;;;16.40;74.00;;;;;;5033338;28;20045;-86
2022/06/27 02:32:11;;;;;;;6.75;1.90;;;16.40;74.00;;;;;;5033588;28;20061;-86
2022/06/27 02:34:39;;;;;;;2.70;1.30;;;16.40;74.00;;;;;;5034133;28;20445;-86
2022/06/27 02:37:07;;;;;;;4.13;1.70;;;16.40;74.00;;;;;;5033879;28;20549;-85
2022/06/27 02:39:36;;;;;;;4.30;1.52;;;16.40;74.10;;;;;;5032815;28;20564;-86
2022/06/27 02:42:06;;;;;;;6.57;2.15;;;16.40;74.10;;;;;;5033345;28;20045;-85
2022/06/27 02:44:33;;;;;;;5.35;1.60;;;16.40;74.10;;;;;;5033364;28;20049;-85
2022/06/27 02:47:01;;;;;;;6.13;1.95;;;16.40;74.20;;;;;;5033368;28;20076;-84
2022/06/27 02:49:28;;;;;;;4.20;1.60;;;16.40;74.20;;;;;;5034639;28;20057;-84
2022/06/27 02:52:18;;;;;;;4.00;1.60;;;16.40;74.20;;;;;;5033151;28;20418;-85
2022/06/27 02:54:53;;;;;;;5.07;1.73;;;16.40;74.30;;;;;;5032818;28;20426;-85
2022/06/27 02:57:35;;;;;;;4.80;1.92;;;16.40;74.30;;;;;;5033045;28;20053;-84
2022/06/27 03:00:07;;;;;;;5.82;1.80;;;16.40;74.30;;;;;;5032965;28;20103;-84
2022/06/27 03:02:38;;;;;;;4.28;1.90;;;16.40;74.40;;;;;;5031256;28;20469;-84
2022/06/27 03:05:06;;;;;;;3.78;1.63;;;16.30;74.40;;;;;;5031628;28;20453;-84
2022/06/27 03:07:38;;;;;;;5.50;1.83;;;16.30;74.40;;;;;;5033994;28;20103;-85
2022/06/27 03:10:06;;;;;;;4.32;1.80;;;16.30;74.40;;;;;;5034403;28;20123;-85
2022/06/27 03:12:33;;;;;;;3.70;1.42;;;16.30;74.50;;;;;;5032629;28;20083;-84
2022/06/27 03:15:00;;;;;;;5.63;2.13;;;16.30;74.50;;;;;;5032715;28;20509;-85
2022/06/27 03:17:28;;;;;;;5.57;1.80;;;16.30;74.50;;;;;;5033044;28;20068;-84
2022/06/27 03:19:56;;;;;;;5.05;1.80;;;16.30;74.60;;;;;;5016894;28;20440;-85
2022/06/27 03:22:23;;;;;;;4.28;1.90;;;16.30;74.60;;;;;;5029486;28;20046;-84
2022/06/27 03:24:50;;;;;;;4.72;1.80;;;16.30;74.60;;;;;;5032482;28;20103;-84
2022/06/27 03:27:17;;;;;;;4.03;1.42;;;16.20;74.60;;;;;;5032418;28;20568;-85
2022/06/27 03:29:44;;;;;;;5.07;1.70;;;16.20;74.60;;;;;;5030450;28;20468;-84
2022/06/27 03:32:11;;;;;;;5.57;1.60;;;16.30;74.70;;;;;;5032545;28;20053;-84
2022/06/27 03:34:37;;;;;;;3.65;1.65;;;16.20;74.70;;;;;;5032011;28;20053;-84
2022/06/27 03:37:05;;;;;;;4.07;1.45;;;16.20;74.70;;;;;;5032258;28;20124;-84
2022/06/27 03:39:32;;;;;;;4.03;1.73;;;16.20;74.70;;;;;;5030865;28;20575;-84
2022/06/27 03:41:59;;;;;;;5.65;1.80;;;16.20;74.80;;;;;;5029279;28;20042;-84
2022/06/27 03:44:28;;;;;;;4.72;1.70;;;16.20;74.80;;;;;;5029663;28;20053;-84
2022/06/27 03:46:55;;;;;;;5.32;1.73;;;16.20;74.80;;;;;;5031042;28;20097;-84
2022/06/27 03:52:07;;;;;;;7.22;1.88;;;16.20;74.90;;;;;;5031418;28;20052;-84
2022/06/27 03:54:34;;;;;;;3.72;1.65;;;16.20;74.90;;;;;;5032055;28;20061;-84
2022/06/27 03:57:01;;;;;;;4.65;1.50;;;16.20;74.90;;;;;;5031905;28;20410;-84
2022/06/27 03:59:28;;;;;;;4.80;1.73;;;16.20;75.00;;;;;;5031915;28;20045;-84
2022/06/27 04:01:55;;;;;;;3.50;1.73;;;16.10;75.00;;;;;;5015950;28;20053;-84
2022/06/27 04:04:22;;;;;;;6.18;2.05;;;16.10;75.00;;;;;;5033669;28;20151;-84
2022/06/27 04:06:49;;;;;;;4.60;1.85;;;16.10;75.10;;;;;;5031296;28;20049;-84
2022/06/27 04:09:16;;;;;;;7.53;2.00;;;16.10;75.10;;;;;;5030175;28;20052;-84
2022/06/27 04:11:43;;;;;;;4.75;1.90;;;16.10;75.10;;;;;;5031558;28;20041;-85
2022/06/27 04:14:10;;;;;;;3.08;1.65;;;16.10;75.20;;;;;;5031719;28;20049;-84
2022/06/27 04:16:37;;;;;;;7.30;2.13;;;16.10;75.20;;;;;;5032598;28;20056;-86
2022/06/27 04:19:04;;;;;;;7.75;1.98;;;16.10;75.30;;;;;;5032794;28;20041;-85
2022/06/27 04:21:32;;;;;;;5.35;1.83;;;16.00;75.30;;;;;;5031210;28;20243;-86
2022/06/27 04:23:59;;;;;;;3.63;1.95;;;16.10;75.40;;;;;;5028676;28;20072;-86
2022/06/27 04:26:26;;;;;;;4.05;1.95;;;16.00;75.50;;;;;;5030148;28;20045;-86
2022/06/27 04:28:53;;;;;;;6.60;1.90;;;16.10;75.50;;;;;;5029915;28;20061;-84
2022/06/27 04:31:20;;;;;;;8.25;2.22;;;16.00;75.50;;;;;;5033075;28;20054;-85
2022/06/27 04:33:47;;;;;;;10.52;2.40;;;16.00;75.50;;;;;;5030483;28;20464;-85
2022/06/27 04:36:14;;;;;;;5.03;1.80;;;16.00;75.60;;;;;;5030723;28;20057;-85
2022/06/27 04:38:41;;;;;;;5.00;1.77;;;16.00;75.60;;;;;;5031159;28;20095;-85
2022/06/27 04:41:09;;;;;;;5.30;2.00;;;16.00;75.60;;;;;;5031175;28;20053;-86
2022/06/27 04:43:36;;;;;;;5.47;1.90;;;16.00;75.60;;;;;;5032131;28;20107;-85
2022/06/27 04:46:03;;;;;;;4.40;1.80;;;16.00;75.70;;;;;;5032204;28;20179;-85
2022/06/27 04:48:30;;;;;;;5.55;1.90;;;16.00;75.70;;;;;;5031013;28;20107;-84
2022/06/27 04:50:59;;;;;;;6.35;2.10;;;16.00;75.70;;;;;;5030595;28;20124;-85
2022/06/27 04:53:27;;;;;;;6.13;1.80;;;16.00;75.70;;;;;;5030965;28;20050;-84
2022/06/27 04:55:54;;;;;;;5.38;2.13;;;16.00;75.80;;;;;;5031033;28;20054;-85
2022/06/27 04:58:21;;;;;;;5.35;2.20;;;16.00;75.80;;;;;;5032820;28;20084;-84
2022/06/27 05:00:48;;;;;;;9.45;2.40;;;16.00;75.80;;;;;;5029142;28;20061;-85
2022/06/27 05:03:15;;;;;;;6.65;2.05;;;16.00;75.80;;;;;;5027803;28;20049;-84
2022/06/27 05:05:42;;;;;;;5.13;2.13;;;16.10;75.90;;;;;;5030373;28;20052;-84
2022/06/27 05:08:09;;;;;;;5.00;2.00;;;16.00;76.00;;;;;;5030785;28;20045;-84
2022/06/27 05:10:39;;;;;;;7.38;1.95;;;16.00;76.00;;;;;;5029942;28;20137;-84
2022/06/27 05:13:06;;;;;;;6.53;2.20;;;16.00;76.00;;;;;;5032260;28;20057;-84
2022/06/27 05:15:32;;;;;;;7.32;2.10;;;16.10;76.00;;;;;;5030534;28;20056;-84
2022/06/27 05:17:59;;;;;;;8.80;2.05;;;16.10;76.10;;;;;;5030252;28;20109;-84
2022/06/27 05:20:28;;;;;;;4.63;1.90;;;16.10;76.10;;;;;;5030585;28;20461;-84
2022/06/27 05:22:55;;;;;;;6.07;2.08;;;16.10;76.20;;;;;;5030747;28;20054;-84
2022/06/27 05:25:22;;;;;;;5.85;2.58;;;16.10;76.20;;;;;;5032250;28;20049;-84
2022/06/27 05:27:50;;;;;;;5.72;2.30;;;16.10;76.20;;;;;;5028639;28;20057;-84
2022/06/27 05:30:17;;;;;;;8.85;2.42;;;16.10;76.30;;;;;;5030385;28;20061;-84
2022/06/27 05:32:44;;;;;;;4.00;1.90;;;16.10;76.30;;;;;;5029915;28;20049;-85
2022/06/27 05:35:11;;;;;;;8.25;2.28;;;16.20;76.40;;;;;;5030460;28;20542;-84
2022/06/27 05:37:38;;;;;;;9.25;1.90;;;16.10;76.40;;;;;;5031099;28;20469;-85
2022/06/27 05:40:08;;;;;;;7.80;2.45;;;16.10;76.40;;;;;;5029914;28;20414;-84
2022/06/27 05:42:36;;;;;;;7.47;2.25;;;16.10;76.40;;;;;;5027366;28;20053;-84
2022/06/27 05:45:04;;;;;;;7.70;2.20;;;16.20;76.40;;;;;;5030677;28;20041;-84
2022/06/27 05:47:31;;;;;;;5.63;2.20;;;16.20;76.40;;;;;;5034118;28;20045;-84
2022/06/27 05:50:03;;;;;;;8.45;2.22;;;16.20;76.50;;;;;;5033237;28;20422;-84
2022/06/27 05:52:31;;;;;;;8.80;2.42;;;16.20;76.40;;;;;;5035733;28;20081;-84
2022/06/27 05:54:59;;;;;;;6.30;1.75;;;16.20;76.50;;;;;;5034739;28;20049;-84
2022/06/27 05:57:28;;;;;;;8.05;2.05;;;16.20;76.50;;;;;;5034259;28;20471;-84
2022/06/27 05:59:55;;;;;;;4.82;2.20;;;16.20;76.50;;;;;;5034122;28;20125;-84
2022/06/27 06:02:25;;;;;;;15.32;2.70;;;16.20;76.50;;;;;;5033832;28;20056;-84
2022/06/27 06:04:53;;;;;;;9.32;2.13;;;16.20;76.60;;;;;;5034175;28;20042;-84
2022/06/27 06:07:23;;;;;;;6.55;2.17;;;16.30;76.50;;;;;;5035802;28;20060;-84
2022/06/27 06:09:50;;;;;;;5.15;2.30;;;16.30;76.60;;;;;;5033983;28;20049;-85
2022/06/27 06:12:18;;;;;;;5.18;1.77;;;16.30;76.60;;;;;;5033895;28;20053;-84
2022/06/27 06:14:46;;;;;;;5.03;2.00;;;16.30;76.60;;;;;;5033786;28;20476;-84
2022/06/27 06:17:13;;;;;;;5.82;2.42;;;16.40;76.60;;;;;;5031995;28;20049;-85
2022/06/27 06:19:41;;;;;;;5.35;2.08;;;16.40;76.60;;;;;;5033503;28;20495;-85
2022/06/27 06:22:08;;;;;;;7.57;2.38;;;16.40;76.60;;;;;;5033534;28;20050;-85
2022/06/27 06:24:36;;;;;;;5.82;2.17;;;16.40;76.60;;;;;;5033688;28;20049;-85
2022/06/27 06:27:08;;;;;;;6.32;2.17;;;16.40;76.50;;;;;;5033850;28;20049;-84
2022/06/27 06:29:35;;;;;;;4.47;1.80;;;16.40;76.60;;;;;;5033350;28;20490;-84
2022/06/27 06:32:03;;;;;;;5.10;2.03;;;16.50;76.60;;;;;;5033383;28;20411;-84
2022/06/27 06:34:34;;;;;;;6.63;2.35;;;16.50;76.50;;;;;;5034961;28;20133;-84
2022/06/27 06:37:01;;;;;;;6.30;1.85;;;16.60;76.50;;;;;;5034324;28;20072;-84
2022/06/27 06:39:29;;;;;;;5.70;2.15;;;16.60;76.50;;;;;;5033422;28;20046;-84
2022/06/27 06:41:57;;;;;;;11.18;2.20;;;16.60;76.50;;;;;;5033364;28;20046;-84
2022/06/27 06:44:25;;;;;;;4.25;1.88;;;16.70;76.50;;;;;;5031791;28;20568;-84
2022/06/27 06:46:54;;;;;;;4.50;1.77;;;16.70;76.40;;;;;;5031750;28;20402;-85
2022/06/27 06:49:22;;;;;;;6.45;2.05;;;16.80;76.40;;;;;;5034960;28;20528;-84
2022/06/27 06:51:50;;;;;;;8.05;1.98;;;16.80;76.40;;;;;;5033133;28;20053;-84
2022/06/27 06:54:20;;;;;;;5.22;2.17;;;16.90;76.40;;;;;;5033226;28;20052;-84
2022/06/27 06:56:49;;;;;;;6.85;1.80;;;16.90;76.30;;;;;;5030691;28;20565;-84
2022/06/27 06:59:17;;;;;;;6.43;2.05;;;16.90;76.30;;;;;;5031640;28;20053;-84
2022/06/27 07:01:46;;;;;;;5.95;2.15;;;16.90;76.30;;;;;;5032811;28;20053;-85
2022/06/27 07:04:16;;;;;;;5.95;2.35;;;17.00;76.30;;;;;;5033584;28;20057;-84
2022/06/27 07:06:44;;;;;;;7.43;2.20;;;17.00;76.30;;;;;;5031552;28;20049;-85
2022/06/27 07:09:11;;;;;;;8.45;2.10;;;17.10;76.20;;;;;;5032779;28;20045;-84
2022/06/27 07:11:39;;;;;;;6.97;2.17;;;17.10;76.20;;;;;;5032746;28;20049;-84
2022/06/27 07:14:07;;;;;;;6.25;2.08;;;17.20;76.10;;;;;;5032588;28;20042;-85
2022/06/27 07:16:35;;;;;;;7.45;2.22;;;17.20;76.00;;;;;;5034051;28;20099;-84
2022/06/27 07:19:03;;;;;;;7.03;2.00;;;17.20;75.90;;;;;;5033845;28;20057;-85
2022/06/27 07:21:31;;;;;;;9.68;2.22;;;17.30;75.90;;;;;;5032557;28;20049;-84
2022/06/27 07:24:00;;;;;;;7.05;2.03;;;17.30;75.80;;;;;;5032560;28;20046;-85
2022/06/27 07:26:31;;;;;;;8.82;2.20;;;17.40;75.70;;;;;;5029927;28;20104;-85
2022/06/27 07:29:03;;;;;;;7.28;2.13;;;17.40;75.60;;;;;;5016392;28;20062;-87
2022/06/27 07:31:30;;;;;;;4.88;1.83;;;17.40;75.50;;;;;;5030270;28;20132;-84
2022/06/27 07:33:59;;;;;;;10.23;2.40;;;17.40;75.50;;;;;;5030740;28;20046;-85
2022/06/27 07:36:26;;;;;;;12.07;2.45;;;17.40;75.40;;;;;;5026470;28;20053;-84
2022/06/27 07:38:54;;;;;;;5.68;2.05;;;17.40;75.40;;;;;;5037038;28;20510;-85
2022/06/27 07:41:23;;;;;;;4.65;1.85;;;17.40;75.30;;;;;;5029487;28;20059;-85
2022/06/27 07:43:51;;;;;;;4.85;1.80;;;17.50;75.20;;;;;;5030234;28;20049;-85
2022/06/27 07:46:20;;;;;;;12.43;2.40;;;17.50;75.10;;;;;;5033058;28;20041;-85
2022/06/27 07:48:50;;;;;;;7.05;2.17;;;17.60;75.00;;;;;;5029201;28;20549;-85
2022/06/27 07:51:19;;;;;;;7.70;2.00;;;17.60;74.80;;;;;;5029169;28;20054;-85
2022/06/27 07:53:48;;;;;;;5.88;2.00;;;17.70;74.80;;;;;;5029274;28;20510;-86
2022/06/27 07:56:17;;;;;;;8.00;1.88;;;17.80;74.70;;;;;;5029281;28;20050;-85
2022/06/27 07:59:10;;;;;;;6.13;1.92;;;17.80;74.50;;;;;;5014011;28;20084;-85
2022/06/27 08:01:37;;;;;;;7.63;1.70;;;17.90;74.50;;;;;;5031577;28;20195;-85
2022/06/27 08:04:05;;;;;;;5.40;1.67;;;17.90;74.40;;;;;;5031081;28;20058;-86
2022/06/27 08:06:33;;;;;;;5.93;1.92;;;18.00;74.30;;;;;;5030727;28;20049;-85
2022/06/27 08:09:04;;;;;;;7.63;1.92;;;18.00;74.10;;;;;;5027787;28;20049;-86
2022/06/27 08:11:40;;;;;;;5.18;1.80;;;18.10;74.00;;;;;;5028884;28;20049;-85
2022/06/27 08:14:11;;;;;;;3.70;1.50;;;18.20;73.90;;;;;;5030466;28;20457;-85
2022/06/27 08:16:40;;;;;;;4.68;1.73;;;18.20;73.80;;;;;;5016943;28;20053;-85
2022/06/27 08:19:08;;;;;;;5.38;1.67;;;18.30;73.60;;;;;;5031880;28;20101;-86
2022/06/27 08:21:37;;;;;;;4.07;1.52;;;18.40;73.50;;;;;;5029454;28;20068;-86
2022/06/27 08:24:09;;;;;;;5.03;1.48;;;18.40;73.40;;;;;;5027734;28;20049;-87
2022/06/27 08:26:37;;;;;;;3.72;1.35;;;18.40;73.20;;;;;;5028452;28;20482;-86
2022/06/27 08:29:05;;;;;;;4.53;1.48;;;18.50;73.10;;;;;;5028515;28;20572;-86
2022/06/27 08:31:34;;;;;;;6.03;1.33;;;18.50;73.00;;;;;;5030375;28;20054;-86
2022/06/27 08:34:02;;;;;;;4.35;1.50;;;18.60;72.80;;;;;;5027183;28;20462;-86
2022/06/27 08:36:31;;;;;;;5.60;1.33;;;18.60;72.60;;;;;;5027158;28;20045;-86
2022/06/27 08:39:07;;;;;;;3.78;1.48;;;18.70;72.40;;;;;;5028768;28;20061;-86
2022/06/27 08:41:35;;;;;;;4.90;1.27;;;18.70;72.20;;;;;;5026763;28;20041;-86
2022/06/27 08:44:04;;;;;;;5.88;1.45;;;18.70;72.00;;;;;;5028522;28;20061;-86
2022/06/27 08:46:32;;;;;;;6.35;1.58;;;18.70;71.90;;;;;;5031248;28;20133;-86
2022/06/27 08:48:59;;;;;;;4.45;1.30;;;18.70;71.80;;;;;;5029175;28;20394;-86
2022/06/27 08:51:27;;;;;;;5.20;1.67;;;18.80;71.60;;;;;;5028137;28;20402;-87
2022/06/27 08:53:55;;;;;;;5.22;1.85;;;18.80;71.50;;;;;;5027240;28;20049;-86
2022/06/27 08:56:24;;;;;;;4.45;1.30;;;18.80;71.50;;;;;;5026689;28;20076;-87
2022/06/27 08:58:52;;;;;;;8.07;1.60;;;18.70;71.30;;;;;;5027924;28;20132;-87
2022/06/27 09:01:23;;;;;;;6.32;1.50;;;18.70;71.20;;;;;;5031805;28;20514;-86
2022/06/27 09:04:09;;;;;;;5.20;1.63;;;18.70;71.10;;;;;;5028321;28;20060;-87
2022/06/27 09:06:43;;;;;;;5.45;1.40;;;18.70;71.00;;;;;;5028116;28;20129;-87
2022/06/27 09:09:12;;;;;;;7.43;1.80;;;18.60;70.90;;;;;;5029608;28;20068;-86
2022/06/27 09:11:41;;;;;;;7.90;1.90;;;18.60;70.90;;;;;;5027345;28;20053;-86
2022/06/27 09:14:41;;;;;;;9.38;2.10;;;18.50;70.90;;;;;;5029412;28;20045;-86
2022/06/27 09:17:13;;;;;;;6.68;1.85;;;18.50;70.70;;;;;;5014293;28;20100;-86
2022/06/27 09:19:44;;;;;;;8.98;1.83;;;18.40;70.60;;;;;;5029997;28;20049;-84
2022/06/27 09:22:14;;;;;;;5.45;1.35;;;18.40;70.40;;;;;;5029333;28;20053;-86
2022/06/27 09:25:04;;;;;;;9.18;1.60;;;18.40;70.30;;;;;;5028950;28;20088;-88
2022/06/27 09:27:50;;;;;;;5.50;1.50;;;18.30;70.30;;;;;;5028058;28;20045;-87
2022/06/27 09:30:20;;;;;;;7.70;1.50;;;18.20;70.30;;;;;;5027374;28;20100;-87
2022/06/27 09:32:49;;;;;;;10.52;1.80;;;18.10;70.30;;;;;;5028975;28;20512;-87
2022/06/27 09:35:34;;;;;;;5.32;1.23;;;18.10;70.40;;;;;;5026552;28;20057;-87
2022/06/27 09:38:07;;;;;;;5.75;1.30;;;17.90;70.50;;;;;;5012760;28;20103;-87
2022/06/27 09:40:36;;;;;;;4.00;1.30;;;17.90;70.60;;;;;;5024838;28;20080;-86
2022/06/27 09:43:06;;;;;;;10.88;1.42;;;17.90;70.80;;;;;;5029479;28;20637;-86
2022/06/27 09:45:33;;;;;;;6.45;1.98;;;17.80;70.90;;;;;;5027477;28;20237;-86
2022/06/27 09:48:04;;;;;;;4.95;1.25;;;17.70;71.00;;;;;;5027384;28;20053;-86
2022/06/27 09:50:34;;;;;;;4.85;1.60;;;17.60;71.20;;;;;;5026249;28;20041;-86
2022/06/27 09:53:02;;;;;;;6.32;1.50;;;17.50;71.30;;;;;;5027449;28;20046;-86
2022/06/27 09:55:30;;;;;;;5.25;1.45;;;17.40;71.50;;;;;;5030844;28;20049;-86
2022/06/27 09:57:58;;;;;;;6.30;1.67;;;17.40;71.60;;;;;;5060833;28;20050;-86
2022/06/27 10:00:27;;;;;;;6.45;1.20;;;17.40;71.80;;;;;;5027097;28;20050;-86
2022/06/27 10:02:59;;;;;;;5.00;1.40;;;17.40;72.00;;;;;;5026140;28;20048;-85
2022/06/27 10:05:27;;;;;;;4.45;1.02;;;17.30;72.10;;;;;;5026309;28;20052;-85
2022/06/27 10:07:59;;;;;;;3.20;1.10;;;17.20;72.20;;;;;;5027616;28;20132;-88
2022/06/27 10:10:30;;;;;;;3.90;1.20;;;17.20;72.30;;;;;;5027742;28;20053;-86
2022/06/27 10:12:59;;;;;;;3.60;1.23;;;17.10;72.40;;;;;;5029748;28;20057;-86
2022/06/27 10:15:35;;;;;;;3.33;1.05;;;17.10;72.50;;;;;;5028923;28;20054;-86
2022/06/27 10:18:03;;;;;;;4.55;1.30;;;17.10;72.60;;;;;;5023822;28;20092;-86
2022/06/27 10:20:36;;;;;;;4.85;1.30;;;17.10;72.60;;;;;;5026020;28;20053;-86
2022/06/27 10:23:03;;;;;;;3.80;1.17;;;17.00;72.70;;;;;;5026976;28;20049;-86
2022/06/27 10:25:30;;;;;;;4.90;1.40;;;17.00;72.70;;;;;;5029297;28;20059;-87
2022/06/27 10:28:13;;;;;;;3.47;1.20;;;17.00;72.70;;;;;;5028372;28;20061;-86
2022/06/27 10:30:48;;;;;;;4.13;1.20;;;16.90;72.80;;;;;;5027161;28;20053;-86
2022/06/27 10:33:26;;;;;;;4.35;1.17;;;16.90;72.90;;;;;;5029387;28;20049;-86
2022/06/27 10:36:01;;;;;;;3.03;1.10;;;16.90;73.00;;;;;;5029726;28;20049;-87
2022/06/27 10:38:34;;;;;;;3.13;1.20;;;16.90;73.00;;;;;;5030562;28;20041;-86
2022/06/27 10:41:03;;;;;;;4.03;1.15;;;16.90;73.10;;;;;;5014583;28;20050;-86
2022/06/27 10:43:36;;;;;;;3.42;0.98;;;16.90;73.20;;;;;;5032807;28;20429;-85
2022/06/27 10:46:10;;;;;;;3.42;1.23;;;16.80;73.20;;;;;;5029586;28;20057;-85
2022/06/27 10:48:42;;;;;;;3.92;1.15;;;16.80;73.30;;;;;;5028160;28;20506;-85
2022/06/27 10:51:21;;;;;;;4.03;1.17;;;16.80;73.40;;;;;;5032015;28;20413;-85
2022/06/27 10:53:50;;;;;;;3.90;1.02;;;16.80;73.50;;;;;;5031710;28;20060;-84
2022/06/27 10:56:35;;;;;;;2.92;1.00;;;16.80;73.50;;;;;;5030319;28;20058;-85
2022/06/27 10:59:04;;;;;;;3.00;1.00;;;16.80;73.60;;;;;;5030489;28;20050;-85
2022/06/27 11:01:32;;;;;;;4.65;1.17;;;16.80;73.60;;;;;;5033048;28;20055;-85
2022/06/27 11:04:00;;;;;;;5.15;1.40;;;16.80;73.70;;;;;;5026520;28;20046;-85
2022/06/27 11:06:27;;;;;;;3.20;1.10;;;16.80;73.70;;;;;;5026200;28;20506;-85
2022/06/27 11:08:55;;;;;;;5.00;1.30;;;16.80;73.80;;;;;;5030174;28;20045;-86
2022/06/27 11:11:27;;;;;;;3.78;1.10;;;16.80;73.90;;;;;;5030020;28;20045;-85
2022/06/27 11:13:59;;;;;;;6.20;1.20;;;16.80;73.90;;;;;;5031053;28;20049;-85
2022/06/27 11:16:31;;;;;;;4.13;0.93;;;16.90;74.00;;;;;;5029219;28;20050;-86
2022/06/27 11:19:01;;;;;;;3.38;1.00;;;16.90;74.10;;;;;;5046821;28;20054;-86
2022/06/27 11:21:29;;;;;;;2.90;1.05;;;16.80;74.10;;;;;;5028639;28;20049;-85
2022/06/27 11:24:06;;;;;;;3.28;1.10;;;16.90;74.20;;;;;;5029660;28;20132;-84
2022/06/27 11:26:36;;;;;;;1.83;0.90;;;16.90;74.20;;;;;;5028686;28;20116;-86
2022/06/27 11:32:06;;;;;;;3.40;1.27;;;17.00;74.20;;;;;;5031036;28;20046;-86
2022/06/27 11:34:43;;;;;;;3.22;1.15;;;17.00;74.30;;;;;;5029636;28;20520;-86
2022/06/27 11:37:14;;;;;;;2.97;1.20;;;17.10;74.30;;;;;;5031775;28;20518;-86
2022/06/27 11:39:55;;;;;;;2.25;1.00;;;17.20;74.30;;;;;;5028323;28;20052;-86
2022/06/27 11:42:28;;;;;;;2.30;1.00;;;17.30;74.30;;;;;;5029374;28;20045;-87
2022/06/27 11:45:05;;;;;;;2.65;1.00;;;17.40;74.20;;;;;;5029182;28;20449;-86
2022/06/27 11:47:34;;;;;;;3.03;1.10;;;17.50;74.20;;;;;;5029219;28;20053;-86
2022/06/27 11:50:13;;;;;;;3.90;1.10;;;17.60;74.00;;;;;;5029037;28;20461;-86
2022/06/27 11:52:52;;;;;;;1.95;0.82;;;17.80;73.90;;;;;;5031872;28;20056;-86
2022/06/27 11:55:24;;;;;;;2.47;0.90;;;17.90;73.70;;;;;;5033023;28;20103;-85
2022/06/27 11:57:54;;;;;;;3.10;1.00;;;18.10;73.50;;;;;;5028874;28;20057;-85
2022/06/27 12:00:30;;;;;;;3.42;0.95;;;18.30;73.20;;;;;;5029213;28;20045;-86
2022/06/27 12:03:05;;;;;;;3.88;1.15;;;18.40;72.90;;;;;;5029279;28;20107;-85
2022/06/27 12:05:33;;;;;;;2.13;0.80;;;18.60;72.50;;;;;;5028760;28;20049;-86
2022/06/27 12:08:09;;;;;;;2.75;1.10;;;18.80;72.30;;;;;;5030724;28;20045;-86
2022/06/27 12:13:46;;;;;;;2.00;0.80;;;19.10;71.60;;;;;;5014250;28;20053;-87
2022/06/27 12:16:13;;;;;;;3.13;0.98;;;19.30;71.10;;;;;;5031709;28;20057;-86
2022/06/27 12:18:43;;;;;;;1.95;0.90;;;19.40;70.80;;;;;;5028524;28;20120;-86
2022/06/27 12:21:11;;;;;;;2.17;0.80;;;19.60;70.40;;;;;;5028818;28;20050;-86
2022/06/27 12:23:38;;;;;;;2.75;0.90;;;19.80;70.20;;;;;;5028675;28;20061;-86
2022/06/27 12:26:05;;;;;;;2.83;0.98;;;19.90;69.80;;;;;;5029065;28;20044;-87
2022/06/27 12:28:33;;;;;;;4.43;0.93;;;20.10;69.40;;;;;;5031580;28;20514;-87
2022/06/27 12:31:00;;;;;;;2.67;0.95;;;20.30;69.00;;;;;;5030416;28;20061;-86
2022/06/27 12:33:27;;;;;;;2.05;0.80;;;20.40;68.60;;;;;;5028181;28;20053;-87
2022/06/27 12:35:54;;;;;;;2.70;1.00;;;20.50;68.20;;;;;;5028386;28;20417;-86
2022/06/27 12:38:21;;;;;;;3.58;0.80;;;20.70;67.80;;;;;;5027302;28;20498;-87
2022/06/27 12:40:49;;;;;;;1.65;0.80;;;20.90;67.40;;;;;;5029609;28;20065;-89
2022/06/27 12:43:15;;;;;;;1.88;0.70;;;20.90;67.00;;;;;;5031782;28;20046;-88
2022/06/27 12:45:42;;;;;;;2.67;0.85;;;21.10;66.40;;;;;;5028670;28;20056;-87
2022/06/27 12:48:17;;;;;;;5.07;1.00;;;21.30;65.70;;;;;;5027266;28;20049;-88
2022/06/27 12:50:44;;;;;;;5.57;1.08;;;21.40;65.10;;;;;;5028520;28;20693;-89
2022/06/27 12:53:11;;;;;;;3.50;1.00;;;21.50;64.60;;;;;;5029909;28;20125;-88
2022/06/27 12:55:38;;;;;;;4.82;1.17;;;21.60;64.10;;;;;;5030107;28;20046;-88
2022/06/27 12:58:05;;;;;;;2.78;0.90;;;21.60;63.60;;;;;;5029882;28;20053;-88
2022/06/27 13:00:32;;;;;;;6.65;1.60;;;21.80;63.00;;;;;;5028609;28;20076;-88
2022/06/27 13:02:59;;;;;;;3.92;1.13;;;21.80;62.50;;;;;;5028168;28;20067;-88
2022/06/27 13:05:34;;;;;;;3.33;1.00;;;21.80;62.10;;;;;;5023999;28;20046;-87